sensor_id;sensor_type;location;lat;lon;timestamp;P1;durP1;ratioP1;P2;durP2;ratioP2
79346;SDS011;68815;48.810;44.482;2024-03-06T00:01:07;5.3;;;2.2;;
79346;SDS011;68815;48.810;44.482;2024-03-06T00:04:09;4.7;;;2.1;;
79346;SDS011;68815;48.810;44.482;2024-03-06T00:07:11;4.2;;;2.2;;
79346;SDS011;68815;48.810;44.482;2024-03-06T00:10:13;5.2;;;2.4;;
79346;SDS011;68815;48.810;44.482;2024-03-06T00:13:15;4.7;;;2.4;;
79346;SDS011;68815;48.810;44.482;2024-03-06T00:16:17;3.8;;;2.4;;
79346;SDS011;68815;48.810;44.482;2024-03-06T00:19:19;4.9;;;2.7;;
79346;SDS011;68815;48.810;44.482;2024-03-06T00:22:21;5.6;;;2.7;;
79346;SDS011;68815;48.810;44.482;2024-03-06T00:25:23;5.1;;;2.7;;
79346;SDS011;68815;48.810;44.482;2024-03-06T00:28:24;5.7;;;2.6;;
79346;SDS011;68815;48.810;44.482;2024-03-06T00:31:27;4.5;;;2.6;;
79346;SDS011;68815;48.810;44.482;2024-03-06T00:34:28;4.6;;;2.6;;
79346;SDS011;68815;48.810;44.482;2024-03-06T00:37:30;4.9;;;3.2;;
79346;SDS011;68815;48.810;44.482;2024-03-06T00:40:32;5.6;;;3.7;;
79346;SDS011;68815;48.810;44.482;2024-03-06T00:43:34;4.7;;;4.2;;
79346;SDS011;68815;48.810;44.482;2024-03-06T00:46:36;5.7;;;5.2;;
79346;SDS011;68815;48.810;44.482;2024-03-06T00:49:38;5.3;;;4.8;;
79346;SDS011;68815;48.810;44.482;2024-03-06T00:52:40;5.4;;;4.9;;
79346;SDS011;68815;48.810;44.482;2024-03-06T00:55:42;7.2;;;6.5;;
79346;SDS011;68815;48.810;44.482;2024-03-06T00:58:44;6.3;;;5.7;;
79346;SDS011;68815;48.810;44.482;2024-03-06T01:01:46;5.8;;;5.3;;
79346;SDS011;68815;48.810;44.482;2024-03-06T01:04:48;8.2;;;7.6;;
79346;SDS011;68815;48.810;44.482;2024-03-06T01:07:49;8.2;;;7.5;;
79346;SDS011;68815;48.810;44.482;2024-03-06T01:10:51;7.7;;;7;;
79346;SDS011;68815;48.810;44.482;2024-03-06T01:13:53;8.1;;;7.5;;
79346;SDS011;68815;48.810;44.482;2024-03-06T01:16:55;6.2;;;5.6;;
79346;SDS011;68815;48.810;44.482;2024-03-06T01:19:57;5.9;;;5.3;;
79346;SDS011;68815;48.810;44.482;2024-03-06T01:22:59;7.3;;;6.7;;
79346;SDS011;68815;48.810;44.482;2024-03-06T01:26:01;8.8;;;8;;
79346;SDS011;68815;48.810;44.482;2024-03-06T01:29:04;8.6;;;7.9;;
79346;SDS011;68815;48.810;44.482;2024-03-06T01:32:11;12.3;;;11.4;;
79346;SDS011;68815;48.810;44.482;2024-03-06T01:35:15;9;;;8.3;;
79346;SDS011;68815;48.810;44.482;2024-03-06T01:38:17;12.3;;;11.5;;
79346;SDS011;68815;48.810;44.482;2024-03-06T01:41:19;12.4;;;11.6;;
79346;SDS011;68815;48.810;44.482;2024-03-06T01:44:20;11.4;;;10.7;;
79346;SDS011;68815;48.810;44.482;2024-03-06T01:47:23;12.3;;;11.5;;
79346;SDS011;68815;48.810;44.482;2024-03-06T01:50:24;11.8;;;11.1;;
79346;SDS011;68815;48.810;44.482;2024-03-06T01:53:26;13.3;;;12.5;;
79346;SDS011;68815;48.810;44.482;2024-03-06T01:56:30;12.4;;;11.7;;
79346;SDS011;68815;48.810;44.482;2024-03-06T01:59:34;14.1;;;13.2;;
79346;SDS011;68815;48.810;44.482;2024-03-06T02:02:36;12.8;;;11.9;;
79346;SDS011;68815;48.810;44.482;2024-03-06T02:05:37;14.2;;;13.3;;
79346;SDS011;68815;48.810;44.482;2024-03-06T02:08:40;15.4;;;14.4;;
79346;SDS011;68815;48.810;44.482;2024-03-06T02:11:42;18.1;;;17;;
79346;SDS011;68815;48.810;44.482;2024-03-06T02:14:44;18.5;;;17.3;;
79346;SDS011;68815;48.810;44.482;2024-03-06T02:17:46;17.6;;;16.5;;
79346;SDS011;68815;48.810;44.482;2024-03-06T02:20:48;19.4;;;18.3;;
79346;SDS011;68815;48.810;44.482;2024-03-06T02:23:50;19.5;;;18.3;;
79346;SDS011;68815;48.810;44.482;2024-03-06T02:26:52;17.4;;;16.4;;
79346;SDS011;68815;48.810;44.482;2024-03-06T02:29:54;18.4;;;17.2;;
79346;SDS011;68815;48.810;44.482;2024-03-06T02:32:56;18.4;;;17.2;;
79346;SDS011;68815;48.810;44.482;2024-03-06T02:35:59;17.6;;;16.6;;
79346;SDS011;68815;48.810;44.482;2024-03-06T02:39:00;17;;;16.1;;
79346;SDS011;68815;48.810;44.482;2024-03-06T02:42:03;19.9;;;18.8;;
79346;SDS011;68815;48.810;44.482;2024-03-06T02:45:06;16.6;;;15.6;;
79346;SDS011;68815;48.810;44.482;2024-03-06T02:48:08;17.6;;;16.5;;
79346;SDS011;68815;48.810;44.482;2024-03-06T02:51:10;16;;;15.1;;
79346;SDS011;68815;48.810;44.482;2024-03-06T02:54:12;18.3;;;17.3;;
79346;SDS011;68815;48.810;44.482;2024-03-06T02:57:13;18.5;;;17.5;;
79346;SDS011;68815;48.810;44.482;2024-03-06T03:00:16;20.2;;;19.1;;
79346;SDS011;68815;48.810;44.482;2024-03-06T03:03:17;18.9;;;17.8;;
79346;SDS011;68815;48.810;44.482;2024-03-06T03:06:19;18.4;;;17.4;;
79346;SDS011;68815;48.810;44.482;2024-03-06T03:09:21;19.1;;;18;;
79346;SDS011;68815;48.810;44.482;2024-03-06T03:12:23;17.6;;;16.5;;
79346;SDS011;68815;48.810;44.482;2024-03-06T03:15:24;18.9;;;17.7;;
79346;SDS011;68815;48.810;44.482;2024-03-06T03:18:26;19.6;;;18.5;;
79346;SDS011;68815;48.810;44.482;2024-03-06T03:21:28;18.3;;;17.3;;
79346;SDS011;68815;48.810;44.482;2024-03-06T03:24:29;18.4;;;17.4;;
79346;SDS011;68815;48.810;44.482;2024-03-06T03:27:31;18.4;;;17.3;;
79346;SDS011;68815;48.810;44.482;2024-03-06T03:30:33;17.9;;;16.8;;
79346;SDS011;68815;48.810;44.482;2024-03-06T03:33:40;18.1;;;17;;
79346;SDS011;68815;48.810;44.482;2024-03-06T03:36:43;19.4;;;18.2;;
79346;SDS011;68815;48.810;44.482;2024-03-06T03:39:45;19.2;;;18.2;;
79346;SDS011;68815;48.810;44.482;2024-03-06T03:42:47;20.3;;;19;;
79346;SDS011;68815;48.810;44.482;2024-03-06T03:45:49;20.3;;;19.1;;
79346;SDS011;68815;48.810;44.482;2024-03-06T03:48:51;19.4;;;18.2;;
79346;SDS011;68815;48.810;44.482;2024-03-06T03:51:53;20.4;;;19.3;;
79346;SDS011;68815;48.810;44.482;2024-03-06T03:54:55;21;;;19.9;;
79346;SDS011;68815;48.810;44.482;2024-03-06T03:57:56;18.6;;;17.5;;
79346;SDS011;68815;48.810;44.482;2024-03-06T04:00:58;19.5;;;18.4;;
79346;SDS011;68815;48.810;44.482;2024-03-06T04:04:00;20.9;;;19.8;;
79346;SDS011;68815;48.810;44.482;2024-03-06T04:07:01;19.4;;;18.4;;
79346;SDS011;68815;48.810;44.482;2024-03-06T04:10:09;20.4;;;19.2;;
79346;SDS011;68815;48.810;44.482;2024-03-06T04:13:12;23;;;21.7;;
79346;SDS011;68815;48.810;44.482;2024-03-06T04:16:16;21.6;;;20.3;;
79346;SDS011;68815;48.810;44.482;2024-03-06T04:19:18;22.9;;;21.6;;
79346;SDS011;68815;48.810;44.482;2024-03-06T04:22:20;22.3;;;21.1;;
79346;SDS011;68815;48.810;44.482;2024-03-06T04:25:22;22.2;;;21.1;;
79346;SDS011;68815;48.810;44.482;2024-03-06T04:28:24;21.4;;;20.3;;
79346;SDS011;68815;48.810;44.482;2024-03-06T04:31:26;20.6;;;19.5;;
79346;SDS011;68815;48.810;44.482;2024-03-06T04:34:28;20.4;;;19.3;;
79346;SDS011;68815;48.810;44.482;2024-03-06T04:37:29;21.4;;;20.1;;
79346;SDS011;68815;48.810;44.482;2024-03-06T04:40:31;21.7;;;20.5;;
79346;SDS011;68815;48.810;44.482;2024-03-06T04:43:33;22.4;;;21.1;;
79346;SDS011;68815;48.810;44.482;2024-03-06T04:46:35;22.6;;;21.1;;
79346;SDS011;68815;48.810;44.482;2024-03-06T04:49:38;23.5;;;22.1;;
79346;SDS011;68815;48.810;44.482;2024-03-06T04:52:40;22.5;;;21.1;;
79346;SDS011;68815;48.810;44.482;2024-03-06T04:55:42;21.4;;;20;;
79346;SDS011;68815;48.810;44.482;2024-03-06T04:58:44;22.4;;;20.9;;
79346;SDS011;68815;48.810;44.482;2024-03-06T05:01:46;25;;;23.6;;
79346;SDS011;68815;48.810;44.482;2024-03-06T05:04:48;23.1;;;21.7;;
79346;SDS011;68815;48.810;44.482;2024-03-06T05:07:50;21.6;;;20.1;;
79346;SDS011;68815;48.810;44.482;2024-03-06T05:10:52;23.4;;;21.8;;
79346;SDS011;68815;48.810;44.482;2024-03-06T05:13:54;21.2;;;19.9;;
79346;SDS011;68815;48.810;44.482;2024-03-06T05:16:56;20;;;18.7;;
79346;SDS011;68815;48.810;44.482;2024-03-06T05:19:58;22.4;;;20.9;;
79346;SDS011;68815;48.810;44.482;2024-03-06T05:23:00;22.3;;;20.9;;
79346;SDS011;68815;48.810;44.482;2024-03-06T05:26:02;22.7;;;21.2;;
79346;SDS011;68815;48.810;44.482;2024-03-06T05:29:04;22.7;;;21.1;;
79346;SDS011;68815;48.810;44.482;2024-03-06T05:32:05;23.2;;;21.8;;
79346;SDS011;68815;48.810;44.482;2024-03-06T05:35:07;22.3;;;20.8;;
79346;SDS011;68815;48.810;44.482;2024-03-06T05:38:25;22.1;;;20.6;;
79346;SDS011;68815;48.810;44.482;2024-03-06T05:41:26;22.5;;;20.9;;
79346;SDS011;68815;48.810;44.482;2024-03-06T05:44:28;20.7;;;19.3;;
79346;SDS011;68815;48.810;44.482;2024-03-06T05:47:30;22.6;;;21;;
79346;SDS011;68815;48.810;44.482;2024-03-06T05:50:32;19.9;;;18.8;;
79346;SDS011;68815;48.810;44.482;2024-03-06T05:53:37;21.8;;;20.2;;
79346;SDS011;68815;48.810;44.482;2024-03-06T05:56:39;22.4;;;20.7;;
79346;SDS011;68815;48.810;44.482;2024-03-06T05:59:41;22.8;;;21.3;;
79346;SDS011;68815;48.810;44.482;2024-03-06T06:02:42;21.6;;;20;;
79346;SDS011;68815;48.810;44.482;2024-03-06T06:05:44;23.3;;;21.8;;
79346;SDS011;68815;48.810;44.482;2024-03-06T06:08:46;21.5;;;20.1;;
79346;SDS011;68815;48.810;44.482;2024-03-06T06:11:48;21.4;;;19.9;;
79346;SDS011;68815;48.810;44.482;2024-03-06T06:14:50;24.7;;;23;;
79346;SDS011;68815;48.810;44.482;2024-03-06T06:17:52;22.9;;;21.5;;
79346;SDS011;68815;48.810;44.482;2024-03-06T06:20:54;21.9;;;20.5;;
79346;SDS011;68815;48.810;44.482;2024-03-06T06:23:55;21.4;;;20.1;;
79346;SDS011;68815;48.810;44.482;2024-03-06T06:26:57;18.8;;;17.7;;
79346;SDS011;68815;48.810;44.482;2024-03-06T06:29:59;19.8;;;18.6;;
79346;SDS011;68815;48.810;44.482;2024-03-06T06:33:01;21.1;;;19.8;;
79346;SDS011;68815;48.810;44.482;2024-03-06T06:36:03;18.6;;;17.5;;
79346;SDS011;68815;48.810;44.482;2024-03-06T06:39:05;18.6;;;17.5;;
79346;SDS011;68815;48.810;44.482;2024-03-06T06:42:07;21;;;19.7;;
79346;SDS011;68815;48.810;44.482;2024-03-06T06:45:10;19.8;;;18.4;;
79346;SDS011;68815;48.810;44.482;2024-03-06T06:48:12;17.6;;;16.5;;
79346;SDS011;68815;48.810;44.482;2024-03-06T06:51:14;19.4;;;18.3;;
79346;SDS011;68815;48.810;44.482;2024-03-06T06:54:15;20.5;;;19.4;;
79346;SDS011;68815;48.810;44.482;2024-03-06T06:57:17;18.2;;;17;;
79346;SDS011;68815;48.810;44.482;2024-03-06T07:00:19;19.3;;;18;;
79346;SDS011;68815;48.810;44.482;2024-03-06T07:03:21;17.1;;;16;;
79346;SDS011;68815;48.810;44.482;2024-03-06T07:06:23;15.6;;;14.6;;
79346;SDS011;68815;48.810;44.482;2024-03-06T07:09:25;17.2;;;16;;
79346;SDS011;68815;48.810;44.482;2024-03-06T07:12:27;16.4;;;15.2;;
79346;SDS011;68815;48.810;44.482;2024-03-06T07:15:29;17.7;;;16.7;;
79346;SDS011;68815;48.810;44.482;2024-03-06T07:18:30;15.4;;;14.1;;
79346;SDS011;68815;48.810;44.482;2024-03-06T07:21:32;13.4;;;12.5;;
79346;SDS011;68815;48.810;44.482;2024-03-06T07:24:34;13.8;;;12.8;;
79346;SDS011;68815;48.810;44.482;2024-03-06T07:27:36;12.5;;;11.6;;
79346;SDS011;68815;48.810;44.482;2024-03-06T07:30:38;11.9;;;10.7;;
79346;SDS011;68815;48.810;44.482;2024-03-06T07:33:40;12.6;;;11.6;;
79346;SDS011;68815;48.810;44.482;2024-03-06T07:36:42;14.4;;;13.3;;
79346;SDS011;68815;48.810;44.482;2024-03-06T07:39:44;14.8;;;13.8;;
79346;SDS011;68815;48.810;44.482;2024-03-06T07:42:47;12.7;;;11.7;;
79346;SDS011;68815;48.810;44.482;2024-03-06T07:45:49;9.6;;;8.7;;
79346;SDS011;68815;48.810;44.482;2024-03-06T07:48:50;7.4;;;6.8;;
79346;SDS011;68815;48.810;44.482;2024-03-06T07:51:52;9.8;;;8.1;;
79346;SDS011;68815;48.810;44.482;2024-03-06T07:54:54;8.3;;;6;;
79346;SDS011;68815;48.810;44.482;2024-03-06T07:57:56;7.1;;;5.5;;
79346;SDS011;68815;48.810;44.482;2024-03-06T08:00:58;6.6;;;4.9;;
79346;SDS011;68815;48.810;44.482;2024-03-06T08:03:59;6.8;;;5;;
79346;SDS011;68815;48.810;44.482;2024-03-06T08:07:01;6.6;;;4.6;;
79346;SDS011;68815;48.810;44.482;2024-03-06T08:10:03;6.7;;;4.8;;
79346;SDS011;68815;48.810;44.482;2024-03-06T08:13:05;7.6;;;4.1;;
79346;SDS011;68815;48.810;44.482;2024-03-06T08:16:08;6.5;;;3.7;;
79346;SDS011;68815;48.810;44.482;2024-03-06T08:19:10;6.4;;;4;;
79346;SDS011;68815;48.810;44.482;2024-03-06T08:22:12;5.2;;;2.8;;
79346;SDS011;68815;48.810;44.482;2024-03-06T08:25:14;9.6;;;3.7;;
79346;SDS011;68815;48.810;44.482;2024-03-06T08:28:16;7.4;;;3.4;;
79346;SDS011;68815;48.810;44.482;2024-03-06T08:31:17;6.9;;;3.5;;
79346;SDS011;68815;48.810;44.482;2024-03-06T08:34:19;7.4;;;3.2;;
79346;SDS011;68815;48.810;44.482;2024-03-06T08:37:21;6.8;;;3.4;;
79346;SDS011;68815;48.810;44.482;2024-03-06T08:40:22;6.9;;;3.1;;
79346;SDS011;68815;48.810;44.482;2024-03-06T08:43:25;5.9;;;3.1;;
79346;SDS011;68815;48.810;44.482;2024-03-06T08:46:27;5.4;;;3.1;;
79346;SDS011;68815;48.810;44.482;2024-03-06T08:49:28;10.6;;;3.9;;
79346;SDS011;68815;48.810;44.482;2024-03-06T08:52:30;6.5;;;3.4;;
79346;SDS011;68815;48.810;44.482;2024-03-06T08:55:33;6.5;;;3.2;;
79346;SDS011;68815;48.810;44.482;2024-03-06T08:58:34;6.5;;;3.4;;
79346;SDS011;68815;48.810;44.482;2024-03-06T09:01:36;5.1;;;2.5;;
79346;SDS011;68815;48.810;44.482;2024-03-06T09:04:38;7;;;2.8;;
79346;SDS011;68815;48.810;44.482;2024-03-06T09:07:40;5.5;;;2.9;;
79346;SDS011;68815;48.810;44.482;2024-03-06T09:10:43;5.4;;;2.6;;
79346;SDS011;68815;48.810;44.482;2024-03-06T09:13:46;7.5;;;3.2;;
79346;SDS011;68815;48.810;44.482;2024-03-06T09:16:48;10.7;;;4.3;;
79346;SDS011;68815;48.810;44.482;2024-03-06T09:19:50;5.9;;;2.8;;
79346;SDS011;68815;48.810;44.482;2024-03-06T09:22:52;6.5;;;3.1;;
79346;SDS011;68815;48.810;44.482;2024-03-06T09:25:53;5.8;;;2.8;;
79346;SDS011;68815;48.810;44.482;2024-03-06T09:28:55;5.8;;;2.7;;
79346;SDS011;68815;48.810;44.482;2024-03-06T09:31:57;5.7;;;3.1;;
79346;SDS011;68815;48.810;44.482;2024-03-06T09:34:59;6.1;;;3.1;;
79346;SDS011;68815;48.810;44.482;2024-03-06T09:38:00;6.5;;;3.1;;
79346;SDS011;68815;48.810;44.482;2024-03-06T09:41:02;7;;;3.1;;
79346;SDS011;68815;48.810;44.482;2024-03-06T09:44:04;6.6;;;3.3;;
79346;SDS011;68815;48.810;44.482;2024-03-06T09:47:07;6.7;;;3;;
79346;SDS011;68815;48.810;44.482;2024-03-06T09:50:15;8.2;;;3.3;;
79346;SDS011;68815;48.810;44.482;2024-03-06T09:53:18;5.5;;;3.2;;
79346;SDS011;68815;48.810;44.482;2024-03-06T09:56:22;6.3;;;2.6;;
79346;SDS011;68815;48.810;44.482;2024-03-06T09:59:25;5.2;;;2.7;;
79346;SDS011;68815;48.810;44.482;2024-03-06T10:02:35;7.9;;;2.9;;
79346;SDS011;68815;48.810;44.482;2024-03-06T10:05:41;7.2;;;2.9;;
79346;SDS011;68815;48.810;44.482;2024-03-06T10:08:43;5.9;;;2.7;;
79346;SDS011;68815;48.810;44.482;2024-03-06T10:11:45;6.3;;;3.1;;
79346;SDS011;68815;48.810;44.482;2024-03-06T10:14:50;8.8;;;3;;
79346;SDS011;68815;48.810;44.482;2024-03-06T10:17:51;5.7;;;2.8;;
79346;SDS011;68815;48.810;44.482;2024-03-06T10:20:53;6;;;2.9;;
79346;SDS011;68815;48.810;44.482;2024-03-06T10:23:57;7.1;;;2.9;;
79346;SDS011;68815;48.810;44.482;2024-03-06T10:27:02;7.1;;;3.3;;
79346;SDS011;68815;48.810;44.482;2024-03-06T10:30:15;6.7;;;3.3;;
79346;SDS011;68815;48.810;44.482;2024-03-06T10:33:25;8.8;;;4.3;;
79346;SDS011;68815;48.810;44.482;2024-03-06T10:36:28;9.3;;;4;;
79346;SDS011;68815;48.810;44.482;2024-03-06T10:39:34;8.8;;;3.7;;
79346;SDS011;68815;48.810;44.482;2024-03-06T10:42:37;7.9;;;3.5;;
79346;SDS011;68815;48.810;44.482;2024-03-06T10:45:43;8.1;;;3.4;;
79346;SDS011;68815;48.810;44.482;2024-03-06T10:48:50;7.9;;;3.4;;
79346;SDS011;68815;48.810;44.482;2024-03-06T10:51:54;6.8;;;3.3;;
79346;SDS011;68815;48.810;44.482;2024-03-06T10:54:59;8;;;3.3;;
79346;SDS011;68815;48.810;44.482;2024-03-06T10:58:02;6.8;;;3.1;;
79346;SDS011;68815;48.810;44.482;2024-03-06T11:01:06;7;;;3.1;;
79346;SDS011;68815;48.810;44.482;2024-03-06T11:04:09;7.6;;;3.5;;
79346;SDS011;68815;48.810;44.482;2024-03-06T11:07:11;7.2;;;3.6;;
79346;SDS011;68815;48.810;44.482;2024-03-06T11:10:13;7.3;;;3.6;;
79346;SDS011;68815;48.810;44.482;2024-03-06T11:13:23;8.7;;;3.2;;
79346;SDS011;68815;48.810;44.482;2024-03-06T11:16:27;8.2;;;3.4;;
79346;SDS011;68815;48.810;44.482;2024-03-06T11:19:30;8.3;;;3.4;;
79346;SDS011;68815;48.810;44.482;2024-03-06T11:26:04;8.6;;;3.7;;
79346;SDS011;68815;48.810;44.482;2024-03-06T11:29:07;7.6;;;3.7;;
79346;SDS011;68815;48.810;44.482;2024-03-06T11:32:11;8.3;;;4;;
79346;SDS011;68815;48.810;44.482;2024-03-06T11:35:17;10.6;;;4;;
79346;SDS011;68815;48.810;44.482;2024-03-06T11:38:20;11.6;;;3.7;;
79346;SDS011;68815;48.810;44.482;2024-03-06T11:41:22;10;;;4.4;;
79346;SDS011;68815;48.810;44.482;2024-03-06T11:44:26;8.3;;;3.9;;
79346;SDS011;68815;48.810;44.482;2024-03-06T11:47:28;8.6;;;3.8;;
79346;SDS011;68815;48.810;44.482;2024-03-06T11:50:30;9.4;;;3.7;;
79346;SDS011;68815;48.810;44.482;2024-03-06T11:53:33;8;;;3.6;;
79346;SDS011;68815;48.810;44.482;2024-03-06T11:56:35;12.3;;;4.1;;
79346;SDS011;68815;48.810;44.482;2024-03-06T11:59:39;7.9;;;3.3;;
79346;SDS011;68815;48.810;44.482;2024-03-06T12:02:41;7.8;;;3.7;;
79346;SDS011;68815;48.810;44.482;2024-03-06T12:05:44;7.7;;;3.6;;
79346;SDS011;68815;48.810;44.482;2024-03-06T12:08:46;9.5;;;4.2;;
79346;SDS011;68815;48.810;44.482;2024-03-06T12:11:48;9.7;;;4;;
79346;SDS011;68815;48.810;44.482;2024-03-06T12:14:56;8.2;;;4;;
79346;SDS011;68815;48.810;44.482;2024-03-06T12:17:59;8.9;;;4.2;;
79346;SDS011;68815;48.810;44.482;2024-03-06T12:21:01;8.8;;;3.8;;
79346;SDS011;68815;48.810;44.482;2024-03-06T12:24:04;9.1;;;3.7;;
79346;SDS011;68815;48.810;44.482;2024-03-06T12:27:06;7.1;;;3;;
79346;SDS011;68815;48.810;44.482;2024-03-06T12:30:10;9;;;3.7;;
79346;SDS011;68815;48.810;44.482;2024-03-06T12:33:16;10.1;;;4.3;;
79346;SDS011;68815;48.810;44.482;2024-03-06T12:36:24;7.7;;;3.8;;
79346;SDS011;68815;48.810;44.482;2024-03-06T12:43:04;8.7;;;3.9;;
79346;SDS011;68815;48.810;44.482;2024-03-06T12:46:07;8.3;;;3.5;;
79346;SDS011;68815;48.810;44.482;2024-03-06T12:49:09;9.8;;;3.6;;
79346;SDS011;68815;48.810;44.482;2024-03-06T12:52:10;6.8;;;3.4;;
79346;SDS011;68815;48.810;44.482;2024-03-06T12:55:12;9.5;;;3.5;;
79346;SDS011;68815;48.810;44.482;2024-03-06T12:58:14;8.1;;;3.3;;
79346;SDS011;68815;48.810;44.482;2024-03-06T13:01:16;10.1;;;3.9;;
79346;SDS011;68815;48.810;44.482;2024-03-06T13:04:17;7.7;;;3.3;;
79346;SDS011;68815;48.810;44.482;2024-03-06T13:07:21;7.9;;;3.6;;
79346;SDS011;68815;48.810;44.482;2024-03-06T13:10:23;8.9;;;3.7;;
79346;SDS011;68815;48.810;44.482;2024-03-06T13:13:26;8;;;3.7;;
79346;SDS011;68815;48.810;44.482;2024-03-06T13:16:28;8;;;3.5;;
79346;SDS011;68815;48.810;44.482;2024-03-06T13:19:30;8.7;;;3.8;;
79346;SDS011;68815;48.810;44.482;2024-03-06T13:22:32;8.6;;;3.9;;
79346;SDS011;68815;48.810;44.482;2024-03-06T13:25:34;8.1;;;3.4;;
79346;SDS011;68815;48.810;44.482;2024-03-06T13:28:36;7.3;;;4.1;;
79346;SDS011;68815;48.810;44.482;2024-03-06T13:31:38;7.9;;;4.1;;
79346;SDS011;68815;48.810;44.482;2024-03-06T13:34:39;6.8;;;3.7;;
79346;SDS011;68815;48.810;44.482;2024-03-06T13:37:42;8.6;;;4;;
79346;SDS011;68815;48.810;44.482;2024-03-06T13:40:44;9.6;;;3.8;;
79346;SDS011;68815;48.810;44.482;2024-03-06T13:43:47;7.3;;;3.3;;
79346;SDS011;68815;48.810;44.482;2024-03-06T13:46:50;7.5;;;3.8;;
79346;SDS011;68815;48.810;44.482;2024-03-06T13:49:52;8.1;;;3.9;;
79346;SDS011;68815;48.810;44.482;2024-03-06T13:52:55;6.6;;;4.2;;
79346;SDS011;68815;48.810;44.482;2024-03-06T13:55:56;7.2;;;4.2;;
79346;SDS011;68815;48.810;44.482;2024-03-06T13:58:58;8.3;;;3.8;;
79346;SDS011;68815;48.810;44.482;2024-03-06T14:02:00;7.9;;;4.8;;
79346;SDS011;68815;48.810;44.482;2024-03-06T14:05:03;11.5;;;4.6;;
79346;SDS011;68815;48.810;44.482;2024-03-06T14:08:05;7.3;;;4.4;;
79346;SDS011;68815;48.810;44.482;2024-03-06T14:11:08;8.7;;;4.5;;
79346;SDS011;68815;48.810;44.482;2024-03-06T14:14:10;7.7;;;4.6;;
79346;SDS011;68815;48.810;44.482;2024-03-06T14:17:12;8;;;4.6;;
79346;SDS011;68815;48.810;44.482;2024-03-06T14:20:14;7.3;;;4.8;;
79346;SDS011;68815;48.810;44.482;2024-03-06T14:23:16;9.9;;;6.2;;
79346;SDS011;68815;48.810;44.482;2024-03-06T14:26:18;8.3;;;6.6;;
79346;SDS011;68815;48.810;44.482;2024-03-06T14:29:19;9.6;;;6.2;;
79346;SDS011;68815;48.810;44.482;2024-03-06T14:32:21;11.1;;;6.7;;
79346;SDS011;68815;48.810;44.482;2024-03-06T14:35:23;10.7;;;7.3;;
79346;SDS011;68815;48.810;44.482;2024-03-06T14:38:25;11.3;;;7.6;;
79346;SDS011;68815;48.810;44.482;2024-03-06T14:41:27;11.9;;;9.9;;
79346;SDS011;68815;48.810;44.482;2024-03-06T14:44:30;11.8;;;8.6;;
79346;SDS011;68815;48.810;44.482;2024-03-06T14:47:32;12.5;;;11.2;;
79346;SDS011;68815;48.810;44.482;2024-03-06T14:50:34;13.4;;;11.3;;
79346;SDS011;68815;48.810;44.482;2024-03-06T14:53:36;12.2;;;6.7;;
79346;SDS011;68815;48.810;44.482;2024-03-06T14:56:38;13.6;;;11.4;;
79346;SDS011;68815;48.810;44.482;2024-03-06T14:59:40;13.7;;;9.2;;
79346;SDS011;68815;48.810;44.482;2024-03-06T15:02:41;13.4;;;11.6;;
79346;SDS011;68815;48.810;44.482;2024-03-06T15:05:44;12.5;;;10.9;;
79346;SDS011;68815;48.810;44.482;2024-03-06T15:08:46;16.2;;;11.9;;
79346;SDS011;68815;48.810;44.482;2024-03-06T15:11:48;12.2;;;9.4;;
79346;SDS011;68815;48.810;44.482;2024-03-06T15:14:50;12.2;;;9.7;;
79346;SDS011;68815;48.810;44.482;2024-03-06T15:17:52;15.9;;;8.1;;
79346;SDS011;68815;48.810;44.482;2024-03-06T15:20:53;12;;;8.2;;
79346;SDS011;68815;48.810;44.482;2024-03-06T15:23:55;14.6;;;9;;
79346;SDS011;68815;48.810;44.482;2024-03-06T15:26:57;12;;;9.1;;
79346;SDS011;68815;48.810;44.482;2024-03-06T15:29:59;12.4;;;9.9;;
79346;SDS011;68815;48.810;44.482;2024-03-06T15:33:00;13.7;;;10.6;;
79346;SDS011;68815;48.810;44.482;2024-03-06T15:36:02;14.5;;;10.8;;
79346;SDS011;68815;48.810;44.482;2024-03-06T15:39:04;14.5;;;12.2;;
79346;SDS011;68815;48.810;44.482;2024-03-06T15:42:07;13;;;9.3;;
79346;SDS011;68815;48.810;44.482;2024-03-06T15:45:10;13.2;;;10.6;;
79346;SDS011;68815;48.810;44.482;2024-03-06T15:48:13;15.7;;;12.7;;
79346;SDS011;68815;48.810;44.482;2024-03-06T15:51:15;16.1;;;14.5;;
79346;SDS011;68815;48.810;44.482;2024-03-06T15:54:17;15.3;;;13.7;;
79346;SDS011;68815;48.810;44.482;2024-03-06T15:57:19;18.3;;;16.5;;
79346;SDS011;68815;48.810;44.482;2024-03-06T16:00:21;15.4;;;13.6;;
79346;SDS011;68815;48.810;44.482;2024-03-06T16:03:23;16;;;14.3;;
79346;SDS011;68815;48.810;44.482;2024-03-06T16:06:25;15.9;;;14.3;;
79346;SDS011;68815;48.810;44.482;2024-03-06T16:09:26;16.7;;;15;;
79346;SDS011;68815;48.810;44.482;2024-03-06T16:12:28;14.8;;;13.4;;
79346;SDS011;68815;48.810;44.482;2024-03-06T16:15:30;15.1;;;13.6;;
79346;SDS011;68815;48.810;44.482;2024-03-06T16:18:32;14.8;;;12.8;;
79346;SDS011;68815;48.810;44.482;2024-03-06T16:21:34;16.7;;;15.1;;
79346;SDS011;68815;48.810;44.482;2024-03-06T16:24:36;16.5;;;14.8;;
79346;SDS011;68815;48.810;44.482;2024-03-06T16:27:38;19.1;;;17.3;;
79346;SDS011;68815;48.810;44.482;2024-03-06T16:30:39;19.4;;;17.6;;
79346;SDS011;68815;48.810;44.482;2024-03-06T16:33:41;18;;;16.1;;
79346;SDS011;68815;48.810;44.482;2024-03-06T16:36:43;17.8;;;16.2;;
79346;SDS011;68815;48.810;44.482;2024-03-06T16:39:45;16.3;;;14.6;;
79346;SDS011;68815;48.810;44.482;2024-03-06T16:42:47;17.9;;;16.4;;
79346;SDS011;68815;48.810;44.482;2024-03-06T16:45:48;14.5;;;12.7;;
79346;SDS011;68815;48.810;44.482;2024-03-06T16:48:51;14.1;;;12;;
79346;SDS011;68815;48.810;44.482;2024-03-06T16:51:53;17.7;;;11.5;;
79346;SDS011;68815;48.810;44.482;2024-03-06T16:54:55;16.4;;;12;;
79346;SDS011;68815;48.810;44.482;2024-03-06T16:57:57;15.4;;;12.4;;
79346;SDS011;68815;48.810;44.482;2024-03-06T17:00:58;15.2;;;11.7;;
79346;SDS011;68815;48.810;44.482;2024-03-06T17:04:00;16.1;;;12.3;;
79346;SDS011;68815;48.810;44.482;2024-03-06T17:07:02;16.8;;;15.1;;
79346;SDS011;68815;48.810;44.482;2024-03-06T17:10:04;15.5;;;12.2;;
79346;SDS011;68815;48.810;44.482;2024-03-06T17:13:08;13.8;;;12.2;;
79346;SDS011;68815;48.810;44.482;2024-03-06T17:16:10;16.9;;;15.2;;
79346;SDS011;68815;48.810;44.482;2024-03-06T17:19:12;17;;;15.4;;
79346;SDS011;68815;48.810;44.482;2024-03-06T17:22:14;16.7;;;15.1;;
79346;SDS011;68815;48.810;44.482;2024-03-06T17:25:16;16.1;;;14.4;;
79346;SDS011;68815;48.810;44.482;2024-03-06T17:28:19;15.7;;;14.3;;
79346;SDS011;68815;48.810;44.482;2024-03-06T17:31:21;15.3;;;13.8;;
79346;SDS011;68815;48.810;44.482;2024-03-06T17:34:23;16.6;;;15.2;;
79346;SDS011;68815;48.810;44.482;2024-03-06T17:37:25;16.9;;;15.6;;
79346;SDS011;68815;48.810;44.482;2024-03-06T17:40:27;16.6;;;15.1;;
79346;SDS011;68815;48.810;44.482;2024-03-06T17:43:29;17.2;;;15.7;;
79346;SDS011;68815;48.810;44.482;2024-03-06T17:46:31;15.9;;;14.6;;
79346;SDS011;68815;48.810;44.482;2024-03-06T17:49:33;14.1;;;12.9;;
79346;SDS011;68815;48.810;44.482;2024-03-06T17:52:36;12.5;;;11;;
79346;SDS011;68815;48.810;44.482;2024-03-06T17:55:38;12.2;;;11.1;;
79346;SDS011;68815;48.810;44.482;2024-03-06T17:58:40;10.6;;;9.2;;
79346;SDS011;68815;48.810;44.482;2024-03-06T18:01:41;10.1;;;8.4;;
79346;SDS011;68815;48.810;44.482;2024-03-06T18:04:43;11.7;;;8;;
79346;SDS011;68815;48.810;44.482;2024-03-06T18:07:45;13.4;;;8.3;;
79346;SDS011;68815;48.810;44.482;2024-03-06T18:10:47;11.4;;;6.2;;
79346;SDS011;68815;48.810;44.482;2024-03-06T18:13:48;10.8;;;5.2;;
79346;SDS011;68815;48.810;44.482;2024-03-06T18:16:50;10.6;;;6;;
79346;SDS011;68815;48.810;44.482;2024-03-06T18:19:52;10.6;;;5.4;;
79346;SDS011;68815;48.810;44.482;2024-03-06T18:22:54;10.2;;;5.6;;
79346;SDS011;68815;48.810;44.482;2024-03-06T18:25:56;10.2;;;5.1;;
79346;SDS011;68815;48.810;44.482;2024-03-06T18:28:58;9.7;;;5;;